Time;durP1;ratioP1;P1;durP2;ratioP2;P2;SDS_P1;SDS_P2;PMS_P1;PMS_P2;Temp;Humidity;BMP_temperature;BMP_pressure;BME280_temperature;BME280_humidity;BME280_pressure;Samples;Min_cycle;Max_cycle;Signal;HPM_P1;HPM_P2
2024/04/17 00:00:07;;;;;;;;;;;7.00;99.90;;;;;;2152803;27;19931;-74
2024/04/17 00:01:07;;;;;;;;;;;7.00;99.90;;;;;;2154043;27;19931;-76
2024/04/17 00:02:08;;;;;;;;;;;7.00;99.90;;;;;;2162751;27;19955;-75
2024/04/17 00:03:10;;;;;;;;;;;7.00;99.90;;;;;;2151302;27;19931;-76
2024/04/17 00:04:11;;;;;;;;;;;7.00;99.90;;;;;;2160104;27;19931;-76
2024/04/17 00:05:11;;;;;;;;;;;7.00;99.90;;;;;;2142321;27;20478;-76
2024/04/17 00:06:12;;;;;;;;;;;7.00;99.90;;;;;;2160173;27;19979;-75
2024/04/17 00:07:12;;;;;;;;;;;7.10;99.90;;;;;;2160350;27;19939;-74
2024/04/17 00:08:13;;;;;;;;;;;7.10;99.90;;;;;;2151928;27;19942;-74
2024/04/17 00:09:13;;;;;;;;;;;7.10;99.90;;;;;;2158287;27;19960;-76
2024/04/17 00:10:14;;;;;;;;;;;7.10;99.90;;;;;;2145705;27;20055;-75
2024/04/17 00:11:15;;;;;;;;;;;7.10;99.90;;;;;;2158189;27;19939;-77
2024/04/17 00:12:15;;;;;;;;;;;7.10;99.90;;;;;;2150229;27;19947;-74
2024/04/17 00:13:16;;;;;;;;;;;7.10;99.90;;;;;;2147180;27;19948;-75
2024/04/17 00:14:16;;;;;;;;;;;7.10;99.90;;;;;;2159687;27;19935;-74
2024/04/17 00:15:16;;;;;;;;;;;7.00;99.90;;;;;;2139178;27;19939;-76
2024/04/17 00:16:17;;;;;;;;;;;7.00;99.90;;;;;;2151321;27;20387;-77
2024/04/17 00:17:17;;;;;;;;;;;7.00;99.90;;;;;;2153609;27;19931;-76
2024/04/17 00:18:18;;;;;;;;;;;7.00;99.90;;;;;;2159854;27;19936;-75
2024/04/17 00:19:18;;;;;;;;;;;7.00;99.90;;;;;;2159754;26;19959;-75
2024/04/17 00:20:19;;;;;;;;;;;7.10;99.90;;;;;;2158335;27;19931;-75
2024/04/17 00:21:19;;;;;;;;;;;7.10;99.90;;;;;;2152885;27;19962;-77
2024/04/17 00:22:20;;;;;;;;;;;7.10;99.90;;;;;;2159165;27;19943;-75
2024/04/17 00:23:20;;;;;;;;;;;7.10;99.90;;;;;;2159486;27;19938;-75
2024/04/17 00:24:21;;;;;;;;;;;7.10;99.90;;;;;;2167164;27;19931;-75
2024/04/17 00:25:22;;;;;;;;;;;7.10;99.90;;;;;;2160444;27;19988;-76
2024/04/17 00:26:22;;;;;;;;;;;7.10;99.90;;;;;;2161185;27;20018;-76
2024/04/17 00:27:23;;;;;;;;;;;7.10;99.90;;;;;;2161100;27;19938;-75
2024/04/17 00:28:24;;;;;;;;;;;7.10;99.90;;;;;;2155542;27;19932;-75
2024/04/17 00:29:25;;;;;;;;;;;7.10;99.90;;;;;;2152875;27;19936;-75
2024/04/17 00:30:25;;;;;;;;;;;7.10;99.90;;;;;;2154440;27;20485;-74
2024/04/17 00:31:26;;;;;;;;;;;7.00;99.90;;;;;;2155460;27;19932;-75
2024/04/17 00:32:26;;;;;;;;;;;7.00;99.90;;;;;;2157305;27;19944;-75
2024/04/17 00:33:27;;;;;;;;;;;7.00;99.90;;;;;;2163252;27;19939;-76
2024/04/17 00:34:27;;;;;;;;;;;7.00;99.90;;;;;;2171994;27;19942;-75
2024/04/17 00:35:28;;;;;;;;;;;6.90;99.90;;;;;;2171773;27;19951;-76
2024/04/17 00:36:28;;;;;;;;;;;6.90;99.90;;;;;;2150861;27;19936;-77
2024/04/17 00:37:29;;;;;;;;;;;6.80;99.90;;;;;;2172119;27;19935;-76
2024/04/17 00:38:29;;;;;;;;;;;6.70;99.90;;;;;;2163897;27;19946;-75
2024/04/17 00:39:30;;;;;;;;;;;6.80;99.90;;;;;;2155496;27;19932;-76
2024/04/17 00:40:31;;;;;;;;;;;6.80;99.90;;;;;;2159246;27;19939;-76
2024/04/17 00:41:31;;;;;;;;;;;6.80;99.90;;;;;;2155730;27;19932;-76
2024/04/17 00:42:32;;;;;;;;;;;6.70;99.90;;;;;;2157759;27;20430;-77
2024/04/17 00:43:32;;;;;;;;;;;6.70;99.90;;;;;;2163166;27;19938;-75
2024/04/17 00:44:33;;;;;;;;;;;6.70;99.90;;;;;;2172561;27;19969;-76
2024/04/17 00:45:35;;;;;;;;;;;6.70;99.90;;;;;;2154885;27;20331;-76
2024/04/17 00:46:37;;;;;;;;;;;6.70;99.90;;;;;;2153931;27;19932;-75
2024/04/17 00:47:37;;;;;;;;;;;6.70;99.90;;;;;;2159029;27;20315;-75
2024/04/17 00:48:38;;;;;;;;;;;6.70;99.90;;;;;;2158518;27;19939;-76
2024/04/17 00:49:39;;;;;;;;;;;6.70;99.90;;;;;;2164722;27;19959;-75
2024/04/17 00:50:40;;;;;;;;;;;6.70;99.90;;;;;;2149413;27;20039;-77
2024/04/17 00:51:41;;;;;;;;;;;6.70;99.90;;;;;;2160883;27;20271;-76
2024/04/17 00:52:41;;;;;;;;;;;6.70;99.90;;;;;;2152566;27;19939;-75
2024/04/17 00:53:42;;;;;;;;;;;6.70;99.90;;;;;;2156990;27;19944;-75
2024/04/17 00:54:42;;;;;;;;;;;6.70;99.90;;;;;;2151885;27;19941;-74
2024/04/17 00:55:43;;;;;;;;;;;6.70;99.90;;;;;;2154670;27;19944;-76
2024/04/17 00:56:44;;;;;;;;;;;6.70;99.90;;;;;;2152958;27;19935;-76
2024/04/17 00:57:46;;;;;;;;;;;6.60;99.90;;;;;;2149520;27;19932;-76
2024/04/17 00:58:46;;;;;;;;;;;6.60;99.90;;;;;;2157668;27;19988;-76
2024/04/17 00:59:48;;;;;;;;;;;6.60;99.90;;;;;;2156955;27;19954;-77
2024/04/17 01:00:48;;;;;;;;;;;6.60;99.90;;;;;;2155572;27;19979;-77
2024/04/17 01:01:49;;;;;;;;;;;6.50;99.90;;;;;;2159681;27;20223;-77
2024/04/17 01:02:49;;;;;;;;;;;6.50;99.90;;;;;;2156710;27;19935;-74
2024/04/17 01:03:50;;;;;;;;;;;6.40;99.90;;;;;;2161180;27;19950;-76
2024/04/17 01:04:50;;;;;;;;;;;6.40;99.90;;;;;;2148893;27;20011;-76
2024/04/17 01:05:51;;;;;;;;;;;6.40;99.90;;;;;;2160718;27;19935;-75
2024/04/17 01:06:51;;;;;;;;;;;6.40;99.90;;;;;;2161977;27;19938;-76
2024/04/17 01:07:52;;;;;;;;;;;6.40;99.90;;;;;;2156818;27;19964;-76
2024/04/17 01:08:52;;;;;;;;;;;6.30;99.90;;;;;;2161299;27;20281;-74
2024/04/17 01:09:54;;;;;;;;;;;6.30;99.90;;;;;;2168704;27;19939;-74
2024/04/17 01:11:00;;;;;;;;;;;6.30;99.90;;;;;;2155894;27;19942;-76
2024/04/17 01:12:00;;;;;;;;;;;6.30;99.90;;;;;;2156272;27;19939;-74
2024/04/17 01:13:01;;;;;;;;;;;6.30;99.90;;;;;;2174958;27;19938;-76
2024/04/17 01:14:02;;;;;;;;;;;6.20;99.90;;;;;;2162499;27;20449;-76
2024/04/17 01:15:07;;;;;;;;;;;6.00;99.90;;;;;;2173848;27;19937;-76
2024/04/17 01:16:08;;;;;;;;;;;6.00;99.90;;;;;;2155213;27;20390;-76
2024/04/17 01:17:08;;;;;;;;;;;6.00;99.90;;;;;;2149872;27;19967;-76
2024/04/17 01:18:09;;;;;;;;;;;5.90;99.90;;;;;;2154869;27;20426;-75
2024/04/17 01:19:10;;;;;;;;;;;6.00;99.90;;;;;;2152241;27;19968;-76
2024/04/17 01:20:10;;;;;;;;;;;5.90;99.90;;;;;;2153844;27;19938;-77
2024/04/17 01:21:10;;;;;;;;;;;5.80;99.90;;;;;;2169273;27;20072;-75
2024/04/17 01:22:11;;;;;;;;;;;5.80;99.90;;;;;;2174637;27;20002;-75
2024/04/17 01:23:12;;;;;;;;;;;5.80;99.90;;;;;;2154666;27;20367;-75
2024/04/17 01:24:12;;;;;;;;;;;5.80;99.90;;;;;;2156921;27;20321;-75
2024/04/17 01:25:12;;;;;;;;;;;5.80;99.90;;;;;;2145937;27;20003;-75
2024/04/17 01:26:13;;;;;;;;;;;5.80;99.90;;;;;;2153322;27;20477;-76
2024/04/17 01:27:13;;;;;;;;;;;5.80;99.90;;;;;;2156967;27;19935;-76
2024/04/17 01:28:14;;;;;;;;;;;5.80;99.90;;;;;;2160468;27;20456;-74
2024/04/17 01:29:15;;;;;;;;;;;5.70;99.90;;;;;;2150448;27;19964;-76
2024/04/17 01:30:15;;;;;;;;;;;5.70;99.90;;;;;;2155450;27;20172;-76
2024/04/17 01:31:16;;;;;;;;;;;5.70;99.90;;;;;;2153718;27;19987;-75
2024/04/17 01:32:16;;;;;;;;;;;5.70;99.90;;;;;;2154609;27;19932;-75
2024/04/17 01:33:17;;;;;;;;;;;5.70;99.90;;;;;;2158071;27;19939;-74
2024/04/17 01:34:18;;;;;;;;;;;5.60;99.90;;;;;;2157501;27;19938;-75
2024/04/17 01:35:18;;;;;;;;;;;5.50;99.90;;;;;;2154013;27;19936;-75
2024/04/17 01:36:18;;;;;;;;;;;5.50;99.90;;;;;;2170440;27;19935;-75
2024/04/17 01:37:19;;;;;;;;;;;5.50;99.90;;;;;;2173312;27;19938;-76
2024/04/17 01:38:20;;;;;;;;;;;5.50;99.90;;;;;;2158976;27;20274;-76
2024/04/17 01:39:20;;;;;;;;;;;5.60;99.90;;;;;;2149342;27;20011;-74
2024/04/17 01:40:21;;;;;;;;;;;5.60;99.90;;;;;;2154187;27;19936;-75
2024/04/17 01:41:21;;;;;;;;;;;5.50;99.90;;;;;;2159042;27;19935;-75
2024/04/17 01:42:22;;;;;;;;;;;5.50;99.90;;;;;;2154637;27;19947;-77
2024/04/17 01:43:24;;;;;;;;;;;5.50;99.90;;;;;;2151956;27;20382;-74
2024/04/17 01:44:25;;;;;;;;;;;5.60;99.90;;;;;;2157462;27;19938;-74
2024/04/17 01:45:25;;;;;;;;;;;5.60;99.90;;;;;;2158799;27;19939;-75
2024/04/17 01:46:26;;;;;;;;;;;5.70;99.90;;;;;;2154626;27;20606;-75
2024/04/17 01:47:26;;;;;;;;;;;5.70;99.90;;;;;;2157034;27;19939;-75
2024/04/17 01:48:27;;;;;;;;;;;5.70;99.90;;;;;;2174791;27;19950;-75
2024/04/17 01:49:27;;;;;;;;;;;5.70;99.90;;;;;;2174284;27;19950;-74
2024/04/17 01:50:28;;;;;;;;;;;5.80;99.90;;;;;;2152970;27;20305;-74
2024/04/17 01:51:29;;;;;;;;;;;5.80;99.90;;;;;;2169151;27;19975;-75
2024/04/17 01:52:29;;;;;;;;;;;5.90;99.90;;;;;;2160685;27;20414;-76
2024/04/17 01:53:30;;;;;;;;;;;5.90;99.90;;;;;;2166994;27;19967;-74
2024/04/17 01:54:31;;;;;;;;;;;5.90;99.90;;;;;;2153148;27;20888;-74
2024/04/17 01:55:32;;;;;;;;;;;5.90;99.90;;;;;;2149786;27;20516;-74
2024/04/17 01:56:33;;;;;;;;;;;5.90;99.90;;;;;;2174179;27;19955;-75
2024/04/17 01:57:33;;;;;;;;;;;5.90;99.90;;;;;;2174229;27;20311;-74
2024/04/17 01:58:34;;;;;;;;;;;5.90;99.90;;;;;;2156771;27;20286;-75
2024/04/17 01:59:34;;;;;;;;;;;5.90;99.90;;;;;;2162639;27;19931;-74
2024/04/17 02:00:35;;;;;;;;;;;6.00;99.90;;;;;;2154487;27;19943;-75
2024/04/17 02:01:36;;;;;;;;;;;5.90;99.90;;;;;;2160692;27;19942;-74
2024/04/17 02:02:36;;;;;;;;;;;6.00;99.90;;;;;;2161107;27;19932;-76
2024/04/17 02:03:36;;;;;;;;;;;6.00;99.90;;;;;;2161136;27;20538;-76
2024/04/17 02:04:37;;;;;;;;;;;6.00;99.90;;;;;;2167981;27;19931;-75
2024/04/17 02:05:37;;;;;;;;;;;6.00;99.90;;;;;;2161232;27;19939;-76
2024/04/17 02:06:38;;;;;;;;;;;6.00;99.90;;;;;;2154761;27;20238;-74
2024/04/17 02:07:38;;;;;;;;;;;6.00;99.90;;;;;;2155546;27;19936;-74
2024/04/17 02:08:39;;;;;;;;;;;6.00;99.90;;;;;;2160707;27;19985;-74
2024/04/17 02:09:39;;;;;;;;;;;6.00;99.90;;;;;;2154453;27;19986;-75
2024/04/17 02:10:40;;;;;;;;;;;5.90;99.90;;;;;;2159597;27;19943;-75
2024/04/17 02:11:40;;;;;;;;;;;5.90;99.90;;;;;;2160166;27;20031;-74
2024/04/17 02:12:41;;;;;;;;;;;5.80;99.90;;;;;;2159461;27;19931;-76
2024/04/17 02:13:41;;;;;;;;;;;5.80;99.90;;;;;;2159678;27;19938;-74
2024/04/17 02:14:42;;;;;;;;;;;5.80;99.90;;;;;;2173982;27;20154;-76
2024/04/17 02:15:42;;;;;;;;;;;5.80;99.90;;;;;;2154727;27;20383;-76
2024/04/17 02:16:43;;;;;;;;;;;5.80;99.90;;;;;;2171883;27;19935;-75
2024/04/17 02:17:43;;;;;;;;;;;5.80;99.90;;;;;;2168205;27;20397;-74
2024/04/17 02:18:44;;;;;;;;;;;5.80;99.90;;;;;;2155290;27;19939;-75
2024/04/17 02:19:44;;;;;;;;;;;5.80;99.90;;;;;;2160808;27;19935;-75
2024/04/17 02:20:44;;;;;;;;;;;5.70;99.90;;;;;;2160468;27;19999;-74
2024/04/17 02:21:45;;;;;;;;;;;5.60;99.90;;;;;;2160233;27;20259;-74
2024/04/17 02:22:46;;;;;;;;;;;5.60;99.90;;;;;;2173894;27;20390;-76
2024/04/17 02:23:47;;;;;;;;;;;5.60;99.90;;;;;;2160749;27;19932;-76
2024/04/17 02:24:48;;;;;;;;;;;5.60;99.90;;;;;;2154353;27;19932;-75
2024/04/17 02:25:48;;;;;;;;;;;5.50;99.90;;;;;;2160995;27;20002;-75
2024/04/17 02:26:49;;;;;;;;;;;5.50;99.90;;;;;;2154848;27;20347;-74
2024/04/17 02:27:49;;;;;;;;;;;5.50;99.90;;;;;;2154461;27;20592;-75
2024/04/17 02:28:50;;;;;;;;;;;5.50;99.90;;;;;;2173463;27;19931;-74
2024/04/17 02:29:53;;;;;;;;;;;5.50;99.90;;;;;;2160310;26;19960;-76
2024/04/17 02:30:54;;;;;;;;;;;5.50;99.90;;;;;;2156818;27;19942;-75
2024/04/17 02:31:55;;;;;;;;;;;5.60;99.90;;;;;;2144163;27;20299;-75
2024/04/17 02:32:55;;;;;;;;;;;5.50;99.90;;;;;;2153441;27;20103;-76
2024/04/17 02:33:56;;;;;;;;;;;5.50;99.90;;;;;;2167103;27;19935;-75
2024/04/17 02:34:56;;;;;;;;;;;5.50;99.90;;;;;;2161338;27;19932;-74
2024/04/17 02:35:57;;;;;;;;;;;5.50;99.90;;;;;;2179046;27;19938;-73
2024/04/17 02:36:57;;;;;;;;;;;5.50;99.90;;;;;;2173942;27;19931;-74
2024/04/17 02:37:57;;;;;;;;;;;5.50;99.90;;;;;;2173629;27;19931;-74
2024/04/17 02:38:58;;;;;;;;;;;5.50;99.90;;;;;;2173989;27;20397;-75
2024/04/17 02:39:59;;;;;;;;;;;5.50;99.90;;;;;;2161790;27;19932;-74
2024/04/17 02:41:01;;;;;;;;;;;5.60;99.90;;;;;;2173121;27;21249;-74
2024/04/17 02:42:01;;;;;;;;;;;5.60;99.90;;;;;;2166906;27;20545;-72
2024/04/17 02:43:02;;;;;;;;;;;5.60;99.90;;;;;;2169830;27;19938;-75
2024/04/17 02:44:02;;;;;;;;;;;5.60;99.90;;;;;;2173882;27;19987;-76
2024/04/17 02:45:03;;;;;;;;;;;5.60;99.90;;;;;;2173944;27;19931;-77
2024/04/17 02:46:03;;;;;;;;;;;5.60;99.90;;;;;;2166688;27;20005;-75
2024/04/17 02:47:04;;;;;;;;;;;5.60;99.90;;;;;;2163695;27;20035;-73
2024/04/17 02:48:04;;;;;;;;;;;5.50;99.90;;;;;;2158214;27;19932;-74
2024/04/17 02:49:05;;;;;;;;;;;5.60;99.90;;;;;;2156282;27;20293;-73
2024/04/17 02:50:05;;;;;;;;;;;5.60;99.90;;;;;;2153719;27;20217;-73
2024/04/17 02:51:06;;;;;;;;;;;5.60;99.90;;;;;;2154129;27;19932;-75
2024/04/17 02:52:06;;;;;;;;;;;5.60;99.90;;;;;;2159808;27;20278;-74
2024/04/17 02:53:07;;;;;;;;;;;5.60;99.90;;;;;;2156435;27;20002;-76
2024/04/17 02:54:08;;;;;;;;;;;5.60;99.90;;;;;;2167574;27;19968;-75
2024/04/17 02:55:08;;;;;;;;;;;5.70;99.90;;;;;;2168934;27;19931;-73
2024/04/17 02:56:09;;;;;;;;;;;5.70;99.90;;;;;;2170920;27;20764;-74
2024/04/17 02:57:09;;;;;;;;;;;5.70;99.90;;;;;;2167258;27;20010;-74
2024/04/17 02:58:10;;;;;;;;;;;5.70;99.90;;;;;;2158271;27;20378;-75
2024/04/17 02:59:10;;;;;;;;;;;5.60;99.90;;;;;;2150365;27;19932;-75
2024/04/17 03:00:11;;;;;;;;;;;5.60;99.90;;;;;;2154194;27;19932;-76
2024/04/17 03:01:12;;;;;;;;;;;5.60;99.90;;;;;;2157956;27;20270;-75
2024/04/17 03:02:12;;;;;;;;;;;5.60;99.90;;;;;;2154848;27;20798;-74
2024/04/17 03:03:13;;;;;;;;;;;5.60;99.90;;;;;;2157544;27;20002;-75
2024/04/17 03:04:13;;;;;;;;;;;5.60;99.90;;;;;;2155764;27;19947;-75
2024/04/17 03:05:14;;;;;;;;;;;5.60;99.90;;;;;;2146480;27;19955;-75
2024/04/17 03:06:14;;;;;;;;;;;5.60;99.90;;;;;;2158106;27;20014;-76
2024/04/17 03:07:15;;;;;;;;;;;5.60;99.90;;;;;;2153897;27;20323;-75
2024/04/17 03:08:15;;;;;;;;;;;5.60;99.90;;;;;;2157434;27;20367;-74
2024/04/17 03:09:16;;;;;;;;;;;5.70;99.90;;;;;;2155449;27;19932;-74
2024/04/17 03:10:16;;;;;;;;;;;5.70;99.90;;;;;;2148360;27;20331;-74
2024/04/17 03:11:17;;;;;;;;;;;5.70;99.90;;;;;;2156611;27;19938;-74
2024/04/17 03:12:18;;;;;;;;;;;5.70;99.90;;;;;;2150555;27;19945;-74
2024/04/17 03:13:18;;;;;;;;;;;5.70;99.90;;;;;;2163033;27;19964;-76
2024/04/17 03:14:19;;;;;;;;;;;5.70;99.90;;;;;;2166857;27;20232;-75
2024/04/17 03:15:19;;;;;;;;;;;5.60;99.90;;;;;;2160708;27;19932;-76
2024/04/17 03:16:19;;;;;;;;;;;5.60;99.90;;;;;;2153994;27;19939;-75
2024/04/17 03:17:20;;;;;;;;;;;5.60;99.90;;;;;;2156360;27;19932;-74
2024/04/17 03:18:20;;;;;;;;;;;5.60;99.90;;;;;;2173680;27;19946;-74
2024/04/17 03:19:21;;;;;;;;;;;5.60;99.90;;;;;;2173613;27;19934;-75
2024/04/17 03:20:21;;;;;;;;;;;5.60;99.90;;;;;;2156048;27;20343;-74
2024/04/17 03:21:22;;;;;;;;;;;5.60;99.90;;;;;;2158686;27;19967;-75
2024/04/17 03:22:22;;;;;;;;;;;5.60;99.90;;;;;;2153341;27;19943;-77
2024/04/17 03:23:23;;;;;;;;;;;5.60;99.90;;;;;;2155397;27;19964;-74
2024/04/17 03:24:23;;;;;;;;;;;5.50;99.90;;;;;;2158612;27;20730;-75
2024/04/17 03:25:24;;;;;;;;;;;5.50;99.90;;;;;;2147151;27;19938;-75
2024/04/17 03:26:24;;;;;;;;;;;5.50;99.90;;;;;;2149586;27;20662;-75
2024/04/17 03:27:25;;;;;;;;;;;5.50;99.90;;;;;;2151387;27;19939;-73
2024/04/17 03:28:26;;;;;;;;;;;5.50;99.90;;;;;;2146070;27;19936;-76
2024/04/17 03:29:26;;;;;;;;;;;5.50;99.90;;;;;;2166406;27;19938;-74
2024/04/17 03:30:27;;;;;;;;;;;5.40;99.90;;;;;;2148991;27;19955;-75
2024/04/17 03:31:27;;;;;;;;;;;5.40;99.90;;;;;;2156003;27;19947;-74
2024/04/17 03:32:28;;;;;;;;;;;5.40;99.90;;;;;;2156730;27;20094;-75
2024/04/17 03:33:28;;;;;;;;;;;5.40;99.90;;;;;;2159569;27;19939;-75
2024/04/17 03:34:29;;;;;;;;;;;5.40;99.90;;;;;;2152255;27;19951;-76
2024/04/17 03:35:29;;;;;;;;;;;5.40;99.90;;;;;;2149927;27;20343;-75
2024/04/17 03:36:30;;;;;;;;;;;5.40;99.90;;;;;;2146160;27;20011;-74
2024/04/17 03:37:31;;;;;;;;;;;5.40;99.90;;;;;;2158881;27;19942;-75
2024/04/17 03:38:31;;;;;;;;;;;5.40;99.90;;;;;;2147928;27;19972;-76
2024/04/17 03:39:32;;;;;;;;;;;5.40;99.90;;;;;;2151623;27;20741;-76
2024/04/17 03:40:32;;;;;;;;;;;5.40;99.90;;;;;;2154175;27;19946;-75
2024/04/17 03:41:33;;;;;;;;;;;5.30;99.90;;;;;;2146917;27;19936;-76
2024/04/17 03:42:33;;;;;;;;;;;5.40;99.90;;;;;;2158636;27;19939;-78
2024/04/17 03:43:34;;;;;;;;;;;5.30;99.90;;;;;;2159529;27;20069;-75
2024/04/17 03:44:34;;;;;;;;;;;5.30;99.90;;;;;;2132943;27;19937;-75
2024/04/17 03:45:35;;;;;;;;;;;5.30;99.90;;;;;;2138572;27;19932;-73
2024/04/17 03:46:35;;;;;;;;;;;5.40;99.90;;;;;;2159147;27;19938;-75
2024/04/17 03:47:39;;;;;;;;;;;5.40;99.90;;;;;;2165411;27;19938;-75
2024/04/17 03:48:39;;;;;;;;;;;5.40;99.90;;;;;;2166560;27;20438;-75
2024/04/17 03:49:40;;;;;;;;;;;5.50;99.90;;;;;;2153317;27;19943;-75
2024/04/17 03:50:40;;;;;;;;;;;5.50;99.90;;;;;;2166050;27;20276;-75
2024/04/17 03:51:41;;;;;;;;;;;5.50;99.90;;;;;;2168693;27;20011;-76
2024/04/17 03:52:41;;;;;;;;;;;5.50;99.90;;;;;;2152704;27;19932;-75
2024/04/17 03:53:42;;;;;;;;;;;5.50;99.90;;;;;;2139522;27;19936;-74
2024/04/17 03:54:42;;;;;;;;;;;5.50;99.90;;;;;;2145985;27;20019;-74
2024/04/17 03:55:43;;;;;;;;;;;5.50;99.90;;;;;;2155814;27;20020;-74
2024/04/17 03:56:43;;;;;;;;;;;5.50;99.90;;;;;;2173140;27;19931;-73
2024/04/17 03:57:44;;;;;;;;;;;5.50;99.90;;;;;;2159949;27;19987;-74
2024/04/17 03:58:44;;;;;;;;;;;5.50;99.90;;;;;;2153651;27;19932;-74
2024/04/17 03:59:45;;;;;;;;;;;5.50;99.90;;;;;;2158423;27;20020;-75
2024/04/17 04:00:46;;;;;;;;;;;5.60;99.90;;;;;;2147207;27;19939;-75
2024/04/17 04:01:47;;;;;;;;;;;5.60;99.90;;;;;;2175259;27;19930;-74
2024/04/17 04:02:47;;;;;;;;;;;5.70;99.90;;;;;;2158564;27;20592;-75
2024/04/17 04:03:48;;;;;;;;;;;5.60;99.90;;;;;;2163209;27;20011;-75
2024/04/17 04:04:48;;;;;;;;;;;5.60;99.90;;;;;;2157090;27;20370;-76
2024/04/17 04:05:49;;;;;;;;;;;5.60;99.90;;;;;;2161802;27;19931;-74
2024/04/17 04:06:49;;;;;;;;;;;5.60;99.90;;;;;;2159716;27;19975;-74
2024/04/17 04:07:50;;;;;;;;;;;5.60;99.90;;;;;;2164901;27;20054;-74
2024/04/17 04:08:50;;;;;;;;;;;5.60;99.90;;;;;;2160606;27;19931;-73
2024/04/17 04:09:51;;;;;;;;;;;5.60;99.90;;;;;;2147605;27;19939;-75
2024/04/17 04:10:51;;;;;;;;;;;5.60;99.90;;;;;;2154351;27;21237;-77
2024/04/17 04:11:53;;;;;;;;;;;5.60;99.90;;;;;;2157802;27;19931;-78
2024/04/17 04:12:53;;;;;;;;;;;5.50;99.90;;;;;;2156818;27;20679;-74
2024/04/17 04:13:54;;;;;;;;;;;5.50;99.90;;;;;;2157524;27;19932;-75
2024/04/17 04:14:54;;;;;;;;;;;5.40;99.90;;;;;;2169554;27;19945;-75
2024/04/17 04:15:55;;;;;;;;;;;5.40;99.90;;;;;;2161539;27;19964;-77
2024/04/17 04:16:55;;;;;;;;;;;5.50;99.90;;;;;;2160924;27;19931;-77
2024/04/17 04:17:55;;;;;;;;;;;5.50;99.90;;;;;;2161328;27;19938;-77
2024/04/17 04:18:56;;;;;;;;;;;5.40;99.90;;;;;;2157944;27;19936;-74
2024/04/17 04:19:56;;;;;;;;;;;5.40;99.90;;;;;;2156577;27;19960;-74
2024/04/17 04:20:57;;;;;;;;;;;5.40;99.90;;;;;;2156451;27;20394;-75
2024/04/17 04:21:57;;;;;;;;;;;5.40;99.90;;;;;;2154103;27;19931;-75
2024/04/17 04:22:58;;;;;;;;;;;5.40;99.90;;;;;;2169908;27;20270;-75
2024/04/17 04:23:59;;;;;;;;;;;5.40;99.90;;;;;;2160156;27;19940;-75
2024/04/17 04:24:59;;;;;;;;;;;5.40;99.90;;;;;;2159837;27;19931;-76
2024/04/17 04:25:59;;;;;;;;;;;5.40;99.90;;;;;;2174346;27;19943;-75
2024/04/17 04:27:00;;;;;;;;;;;5.40;99.90;;;;;;2153868;27;20474;-75
2024/04/17 04:28:00;;;;;;;;;;;5.40;99.90;;;;;;2157714;27;19932;-75
2024/04/17 04:29:01;;;;;;;;;;;5.40;99.90;;;;;;2153173;27;20404;-73
2024/04/17 04:30:01;;;;;;;;;;;5.40;99.90;;;;;;2174645;27;19935;-74
2024/04/17 04:31:02;;;;;;;;;;;5.40;99.90;;;;;;2172196;27;19931;-75
2024/04/17 04:32:02;;;;;;;;;;;5.40;99.90;;;;;;2149872;27;19948;-75
2024/04/17 04:33:03;;;;;;;;;;;5.40;99.90;;;;;;2160594;27;19938;-75
2024/04/17 04:34:03;;;;;;;;;;;5.40;99.90;;;;;;2170369;27;19946;-75
2024/04/17 04:35:04;;;;;;;;;;;5.30;99.90;;;;;;2166231;27;19941;-75
2024/04/17 04:36:05;;;;;;;;;;;5.30;99.90;;;;;;2171666;27;19943;-74
2024/04/17 04:37:06;;;;;;;;;;;5.30;99.90;;;;;;2174899;27;19942;-74
2024/04/17 04:38:06;;;;;;;;;;;5.20;99.90;;;;;;2160898;27;19936;-74
2024/04/17 04:39:06;;;;;;;;;;;5.20;99.90;;;;;;2160719;27;19944;-75
2024/04/17 04:40:07;;;;;;;;;;;5.20;99.90;;;;;;2161815;27;19980;-75
2024/04/17 04:41:08;;;;;;;;;;;5.20;99.90;;;;;;2145087;27;19940;-75
2024/04/17 04:42:08;;;;;;;;;;;5.20;99.90;;;;;;2160242;27;19939;-76
2024/04/17 04:43:10;;;;;;;;;;;5.30;99.90;;;;;;2174219;27;19938;-74
2024/04/17 04:44:11;;;;;;;;;;;5.30;99.90;;;;;;2174208;27;19938;-74
2024/04/17 04:45:11;;;;;;;;;;;5.40;99.90;;;;;;2155002;27;19932;-75
2024/04/17 04:46:12;;;;;;;;;;;5.40;99.90;;;;;;2160330;27;19932;-76
2024/04/17 04:47:14;;;;;;;;;;;5.40;99.90;;;;;;2161456;27;19938;-77
2024/04/17 04:48:15;;;;;;;;;;;5.40;99.90;;;;;;2154699;27;19938;-76
2024/04/17 04:49:15;;;;;;;;;;;5.20;99.90;;;;;;2145946;27;19932;-75
2024/04/17 04:50:16;;;;;;;;;;;5.20;99.90;;;;;;2164655;27;21181;-75
2024/04/17 04:51:16;;;;;;;;;;;5.30;99.90;;;;;;2155599;27;20545;-78
2024/04/17 04:52:16;;;;;;;;;;;5.30;99.90;;;;;;2152724;27;19943;-77
2024/04/17 04:53:17;;;;;;;;;;;5.30;99.90;;;;;;2155849;27;19967;-76
2024/04/17 04:54:17;;;;;;;;;;;5.30;99.90;;;;;;2152515;27;20003;-76
2024/04/17 04:55:18;;;;;;;;;;;5.20;99.90;;;;;;2166878;27;19931;-76
2024/04/17 04:56:18;;;;;;;;;;;5.20;99.90;;;;;;2154074;27;19987;-75
2024/04/17 04:57:22;;;;;;;;;;;5.20;99.90;;;;;;2160443;27;19935;-75
2024/04/17 04:58:22;;;;;;;;;;;5.30;99.90;;;;;;2155813;27;20405;-76
2024/04/17 04:59:23;;;;;;;;;;;5.30;99.90;;;;;;2155584;27;20020;-75
2024/04/17 05:00:23;;;;;;;;;;;5.30;99.90;;;;;;2155359;27;19995;-75
2024/04/17 05:01:24;;;;;;;;;;;5.30;99.90;;;;;;2151720;27;19932;-75
2024/04/17 05:02:25;;;;;;;;;;;5.30;99.90;;;;;;2147019;27;19939;-76
2024/04/17 05:03:25;;;;;;;;;;;5.30;99.90;;;;;;2155492;27;19933;-76
2024/04/17 05:04:26;;;;;;;;;;;5.30;99.90;;;;;;2160530;27;19938;-76
2024/04/17 05:05:26;;;;;;;;;;;5.30;99.90;;;;;;2161903;27;19931;-75
2024/04/17 05:06:27;;;;;;;;;;;5.30;99.90;;;;;;2156373;27;20274;-75
2024/04/17 05:07:27;;;;;;;;;;;5.40;99.90;;;;;;2163298;27;19938;-76
2024/04/17 05:08:28;;;;;;;;;;;5.30;99.90;;;;;;2156888;27;19935;-76
2024/04/17 05:09:28;;;;;;;;;;;5.30;99.90;;;;;;2161676;27;20019;-76
2024/04/17 05:10:29;;;;;;;;;;;5.40;99.90;;;;;;2160469;27;20539;-77
2024/04/17 05:11:29;;;;;;;;;;;5.30;99.90;;;;;;2169085;27;19938;-78
2024/04/17 05:12:30;;;;;;;;;;;5.30;99.90;;;;;;2160356;27;19964;-73
2024/04/17 05:13:30;;;;;;;;;;;5.40;99.90;;;;;;2134632;27;19945;-79
2024/04/17 05:14:31;;;;;;;;;;;5.40;99.90;;;;;;2147166;27;19964;-75
2024/04/17 05:15:31;;;;;;;;;;;5.50;99.90;;;;;;2163363;27;19938;-81
2024/04/17 05:16:32;;;;;;;;;;;5.60;99.90;;;;;;2172401;27;19927;-80
2024/04/17 05:17:32;;;;;;;;;;;5.70;99.90;;;;;;2166124;27;19932;-80
2024/04/17 05:18:33;;;;;;;;;;;5.70;99.90;;;;;;2174147;27;19938;-82
2024/04/17 05:19:33;;;;;;;;;;;5.60;99.90;;;;;;2163104;27;19943;-82
2024/04/17 05:20:34;;;;;;;;;;;5.60;99.90;;;;;;2163979;27;19947;-79
2024/04/17 05:21:34;;;;;;;;;;;5.50;99.90;;;;;;2178116;27;19931;-81
2024/04/17 05:22:35;;;;;;;;;;;5.50;99.90;;;;;;2162638;27;19995;-81
2024/04/17 05:23:36;;;;;;;;;;;5.50;99.90;;;;;;2170656;27;19931;-78
2024/04/17 05:24:37;;;;;;;;;;;5.50;99.90;;;;;;2169993;27;20359;-79
2024/04/17 05:25:37;;;;;;;;;;;5.50;99.90;;;;;;2135379;27;20005;-78
2024/04/17 05:26:38;;;;;;;;;;;5.40;99.90;;;;;;2159964;27;20252;-87
2024/04/17 05:27:38;;;;;;;;;;;5.40;99.90;;;;;;2179496;27;19939;-83
2024/04/17 05:28:39;;;;;;;;;;;5.40;99.90;;;;;;2169118;27;19938;-87
2024/04/17 05:29:39;;;;;;;;;;;5.40;99.90;;;;;;2164841;27;19943;-82
2024/04/17 05:30:40;;;;;;;;;;;5.30;99.90;;;;;;2172694;27;19931;-84
2024/04/17 05:31:41;;;;;;;;;;;5.40;99.90;;;;;;2163066;27;20028;-79
2024/04/17 05:32:42;;;;;;;;;;;5.40;99.90;;;;;;2156110;27;19932;-74
2024/04/17 05:33:42;;;;;;;;;;;5.40;99.90;;;;;;2153737;27;19932;-86
2024/04/17 05:34:45;;;;;;;;;;;5.30;99.90;;;;;;2160449;27;19942;-81
2024/04/17 05:35:46;;;;;;;;;;;5.30;99.90;;;;;;2174306;27;19931;-76
2024/04/17 05:36:46;;;;;;;;;;;5.40;99.90;;;;;;2154589;27;19932;-76
2024/04/17 05:37:47;;;;;;;;;;;5.40;99.90;;;;;;2159143;27;19931;-77
2024/04/17 05:38:47;;;;;;;;;;;5.40;99.90;;;;;;2149725;27;19932;-83
2024/04/17 05:39:48;;;;;;;;;;;5.40;99.90;;;;;;2171595;27;19931;-81
2024/04/17 05:40:49;;;;;;;;;;;5.40;99.90;;;;;;2162317;27;19943;-85
2024/04/17 05:41:49;;;;;;;;;;;5.40;99.90;;;;;;2147366;27;19943;-82
2024/04/17 05:42:50;;;;;;;;;;;5.30;99.90;;;;;;2154786;27;19936;-89
2024/04/17 05:43:51;;;;;;;;;;;5.30;99.90;;;;;;2159885;27;20062;-82
2024/04/17 05:44:51;;;;;;;;;;;5.30;99.90;;;;;;2151643;27;20412;-77
2024/04/17 05:45:52;;;;;;;;;;;5.30;99.90;;;;;;2161113;27;19935;-76
2024/04/17 05:46:52;;;;;;;;;;;5.40;99.90;;;;;;2159483;27;19938;-78
2024/04/17 05:47:53;;;;;;;;;;;5.40;99.90;;;;;;2156834;27;19938;-82
2024/04/17 05:48:54;;;;;;;;;;;5.40;99.90;;;;;;2169039;27;20189;-82
2024/04/17 05:49:54;;;;;;;;;;;5.40;99.90;;;;;;2176711;27;19935;-82
2024/04/17 05:50:55;;;;;;;;;;;5.40;99.90;;;;;;2172927;27;19990;-81
2024/04/17 05:51:56;;;;;;;;;;;5.40;99.90;;;;;;2172108;27;19983;-80
2024/04/17 05:52:56;;;;;;;;;;;5.20;99.90;;;;;;2149060;27;19939;-84
2024/04/17 05:53:57;;;;;;;;;;;5.30;99.90;;;;;;2159817;27;19938;-78
2024/04/17 05:54:57;;;;;;;;;;;5.40;99.90;;;;;;2155573;27;19932;-80
2024/04/17 05:55:58;;;;;;;;;;;5.40;99.90;;;;;;2156281;27;19944;-81
2024/04/17 05:56:58;;;;;;;;;;;5.40;99.90;;;;;;2160628;27;19931;-82
2024/04/17 05:57:59;;;;;;;;;;;5.40;99.90;;;;;;2168963;27;20509;-81